createdAt,value
2022-09-12T00:00:26.499Z,25.30
2022-09-12T00:02:58.061Z,17.00
2022-09-12T00:05:29.207Z,9.90
2022-09-12T00:07:59.810Z,1.00
2022-09-12T00:10:32.254Z,1.00
2022-09-12T00:13:02.437Z,1.00
2022-09-12T00:15:32.206Z,1.00
2022-09-12T00:18:03.213Z,1.00
2022-09-12T00:20:33.164Z,1.60
2022-09-12T00:23:03.604Z,12.40
2022-09-12T00:25:35.943Z,8.20
2022-09-12T00:28:06.302Z,1.80
2022-09-12T00:30:36.028Z,3.80
2022-09-12T00:33:07.030Z,1.00
2022-09-12T00:35:36.810Z,1.00
2022-09-12T00:38:07.247Z,1.00
2022-09-12T00:40:39.737Z,1.00
2022-09-12T00:43:15.929Z,1.00
2022-09-12T00:45:45.765Z,1.00
2022-09-12T00:48:25.445Z,1.00
2022-09-12T00:50:55.605Z,1.00
2022-09-12T00:53:26.070Z,1.00
2022-09-12T00:56:00.329Z,1.00
2022-09-12T00:58:35.065Z,1.00
2022-09-12T01:01:05.153Z,1.00
2022-09-12T01:03:36.092Z,1.00
2022-09-12T01:06:14.626Z,1.00
2022-09-12T01:08:47.241Z,1.00
2022-09-12T01:11:21.139Z,1.00
2022-09-12T01:13:52.555Z,1.00
2022-09-12T01:16:22.377Z,5.00
2022-09-12T01:19:10.729Z,12.10
2022-09-12T01:21:51.349Z,17.70
2022-09-12T01:24:42.218Z,9.10
2022-09-12T01:27:44.895Z,10.10
2022-09-12T01:30:43.029Z,13.60
2022-09-12T01:33:39.316Z,11.70
2022-09-12T01:36:38.203Z,7.10
2022-09-12T01:39:13.218Z,10.40
2022-09-12T01:41:53.060Z,11.00
2022-09-12T01:44:33.027Z,10.40
2022-09-12T01:47:11.939Z,5.70
2022-09-12T01:49:52.378Z,9.00
2022-09-12T01:52:28.455Z,12.60
2022-09-12T01:55:08.972Z,16.30
2022-09-12T01:57:44.170Z,14.00
2022-09-12T02:00:15.954Z,18.60
2022-09-12T02:02:52.043Z,18.90
2022-09-12T02:05:28.699Z,24.10
2022-09-12T02:08:10.535Z,18.80
2022-09-12T02:10:46.366Z,16.80
2022-09-12T02:13:19.767Z,14.30
2022-09-12T02:15:52.999Z,17.60
2022-09-12T02:18:30.583Z,23.40
2022-09-12T02:21:01.173Z,27.20
2022-09-12T02:23:34.970Z,27.10
2022-09-12T02:26:09.510Z,28.10
2022-09-12T02:28:45.246Z,28.00
2022-09-12T02:31:23.293Z,29.20
2022-09-12T02:34:05.352Z,22.00
2022-09-12T02:36:41.896Z,13.50
2022-09-12T02:39:12.002Z,13.40
2022-09-12T02:41:41.809Z,13.70
2022-09-12T02:44:11.686Z,26.40
2022-09-12T02:46:45.389Z,37.20
2022-09-12T02:49:19.623Z,31.70
2022-09-12T02:51:52.819Z,27.30
2022-09-12T02:54:24.280Z,21.50
2022-09-12T02:56:54.304Z,23.30
2022-09-12T02:59:26.936Z,27.30
2022-09-12T03:02:10.056Z,16.60
2022-09-12T03:05:05.139Z,15.40
2022-09-12T03:07:49.055Z,21.30
2022-09-12T03:10:28.054Z,28.80
2022-09-12T03:13:09.815Z,35.10
2022-09-12T03:15:49.724Z,10.60
2022-09-12T03:18:44.172Z,3.10
2022-09-12T03:21:24.106Z,8.00
2022-09-12T03:24:11.855Z,8.00
2022-09-12T03:26:46.161Z,1.00
2022-09-12T03:29:18.290Z,1.00
2022-09-12T03:31:53.059Z,2.90
2022-09-12T03:34:24.734Z,5.60
2022-09-12T03:36:58.282Z,10.30
2022-09-12T03:39:28.762Z,10.60
2022-09-12T03:41:59.363Z,13.70
2022-09-12T03:44:29.835Z,27.40
2022-09-12T03:47:01.631Z,43.70
2022-09-12T03:49:31.875Z,43.70
2022-09-12T03:52:04.445Z,29.60
2022-09-12T03:54:34.831Z,24.60
2022-09-12T03:57:04.582Z,33.10
2022-09-12T03:59:34.846Z,30.20
2022-09-12T04:02:04.719Z,36.80
2022-09-12T04:04:35.411Z,46.30
2022-09-12T04:07:09.291Z,54.60
2022-09-12T04:09:39.659Z,50.40
2022-09-12T04:12:09.939Z,47.30
2022-09-12T04:14:39.923Z,46.00
2022-09-12T04:17:09.776Z,41.70
2022-09-12T04:19:40.025Z,42.40
2022-09-12T04:22:12.346Z,45.40
2022-09-12T04:24:42.424Z,47.70
2022-09-12T04:27:12.163Z,53.20
2022-09-12T04:29:42.234Z,53.50
2022-09-12T04:32:12.261Z,51.30
2022-09-12T04:34:42.055Z,45.10
2022-09-12T04:37:14.456Z,51.10
2022-09-12T04:39:44.709Z,58.40
2022-09-12T04:42:14.513Z,62.80
2022-09-12T04:44:44.748Z,65.10
2022-09-12T04:47:14.507Z,73.40
2022-09-12T04:49:44.611Z,70.30
2022-09-12T04:52:16.954Z,63.30
2022-09-12T04:54:46.899Z,62.20
2022-09-12T04:57:16.715Z,62.50
2022-09-12T04:59:46.500Z,65.80
2022-09-12T05:02:16.424Z,51.80
2022-09-12T05:04:46.977Z,45.30
2022-09-12T05:07:19.430Z,51.50
2022-09-12T05:09:49.212Z,49.30
2022-09-12T05:12:19.036Z,49.70
2022-09-12T05:14:49.098Z,44.30
2022-09-12T05:17:18.919Z,34.60
2022-09-12T05:19:48.730Z,35.10
2022-09-12T05:22:21.097Z,43.80
2022-09-12T05:24:51.653Z,51.30
2022-09-12T05:27:21.394Z,63.20
2022-09-12T05:29:52.249Z,72.70
2022-09-12T05:32:22.052Z,79.50
2022-09-12T05:34:51.990Z,87.20
2022-09-12T05:37:24.444Z,90.80
2022-09-12T05:39:55.389Z,93.90
2022-09-12T05:42:25.261Z,96.80
2022-09-12T05:44:55.041Z,99.70
2022-09-12T05:47:25.028Z,99.90
2022-09-12T05:49:55.119Z,99.90
2022-09-12T05:52:27.712Z,99.90
2022-09-12T05:54:57.546Z,99.90
2022-09-12T05:57:27.354Z,99.90
2022-09-12T05:59:57.295Z,99.90
2022-09-12T06:02:27.123Z,99.90
2022-09-12T06:04:57.009Z,97.90
2022-09-12T06:07:29.743Z,97.10
2022-09-12T06:10:00.288Z,95.10
2022-09-12T06:12:31.897Z,92.90
2022-09-12T06:15:02.041Z,92.70
2022-09-12T06:17:32.251Z,93.00
2022-09-12T06:20:02.774Z,84.20
2022-09-12T06:22:35.237Z,75.20
2022-09-12T06:25:05.211Z,52.50
2022-09-12T06:27:34.986Z,37.00
2022-09-12T06:30:05.614Z,39.90
2022-09-12T06:32:35.642Z,50.00
2022-09-12T06:35:06.025Z,59.70
2022-09-12T06:37:38.401Z,72.00
2022-09-12T06:40:11.340Z,73.10
2022-09-12T06:42:41.150Z,74.90
2022-09-12T06:45:12.574Z,64.10
2022-09-12T06:47:42.342Z,57.80
2022-09-12T06:50:13.318Z,51.40
2022-09-12T06:52:45.991Z,54.10
2022-09-12T06:55:20.336Z,38.40
2022-09-12T06:57:52.291Z,38.20
2022-09-12T07:00:22.323Z,29.90
2022-09-12T07:02:52.069Z,18.30
2022-09-12T07:05:22.560Z,15.00
2022-09-12T07:07:54.938Z,5.40
2022-09-12T07:10:25.138Z,1.00
2022-09-12T07:12:55.269Z,1.00
2022-09-12T07:15:25.691Z,1.00
2022-09-12T07:17:55.540Z,1.00
2022-09-12T07:20:25.605Z,1.00
2022-09-12T07:22:57.994Z,1.00
2022-09-12T07:25:28.563Z,1.00
2022-09-12T07:27:58.379Z,1.00
2022-09-12T07:30:28.608Z,1.00
2022-09-12T07:32:58.541Z,1.00
2022-09-12T07:35:29.233Z,1.00
2022-09-12T07:38:01.674Z,1.00
2022-09-12T07:40:31.492Z,1.00
2022-09-12T07:43:01.656Z,1.00
2022-09-12T07:45:32.144Z,1.00
2022-09-12T07:48:01.907Z,1.00
2022-09-12T07:53:29.347Z,1.00
2022-09-12T07:55:59.947Z,1.00
2022-09-12T07:58:30.510Z,1.00
2022-09-12T08:01:05.597Z,1.00
2022-09-12T08:03:35.609Z,1.00
2022-09-12T08:06:09.569Z,1.00
2022-09-12T08:08:43.214Z,1.00
2022-09-12T08:11:15.639Z,1.00
2022-09-12T08:13:46.405Z,1.00
2022-09-12T08:16:18.019Z,1.00
2022-09-12T08:18:48.051Z,1.00
2022-09-12T08:21:20.172Z,1.00
2022-09-12T08:23:56.674Z,1.00
2022-09-12T08:26:27.135Z,1.00
2022-09-12T08:28:57.253Z,1.00
2022-09-12T08:31:29.520Z,1.00
2022-09-12T08:34:00.966Z,1.00
2022-09-12T08:36:31.540Z,1.00
2022-09-12T08:39:06.822Z,1.00
2022-09-12T08:41:40.790Z,1.00
2022-09-12T08:44:32.544Z,1.00
2022-09-12T08:47:24.694Z,1.00
2022-09-12T08:50:05.258Z,1.00
2022-09-12T08:52:42.260Z,1.00
2022-09-12T08:55:31.479Z,1.00
2022-09-12T08:58:02.522Z,1.00
2022-09-12T09:00:44.699Z,1.00
2022-09-12T09:03:49.102Z,1.00
2022-09-12T09:06:32.196Z,1.00
2022-09-12T09:09:08.856Z,1.00
2022-09-12T09:11:52.180Z,1.00
2022-09-12T09:14:49.356Z,1.00
2022-09-12T09:17:25.454Z,1.00
2022-09-12T09:20:02.874Z,1.00
2022-09-12T09:22:40.911Z,1.00
2022-09-12T09:25:22.565Z,1.00
2022-09-12T09:28:01.052Z,1.00
2022-09-12T09:30:31.605Z,1.00
2022-09-12T09:33:05.710Z,1.00
2022-09-12T09:35:46.365Z,1.00
2022-09-12T09:38:28.172Z,1.00
2022-09-12T09:41:14.916Z,1.00
2022-09-12T09:43:48.099Z,1.00
2022-09-12T09:46:18.499Z,1.00
2022-09-12T09:48:52.152Z,1.00
2022-09-12T09:51:27.956Z,1.00
2022-09-12T09:54:01.415Z,1.00
2022-09-12T09:56:35.539Z,1.00
2022-09-12T09:59:19.743Z,1.00
2022-09-12T10:01:52.064Z,1.00
2022-09-12T10:04:24.099Z,1.00
2022-09-12T10:06:58.849Z,1.00
2022-09-12T10:09:30.873Z,1.00
2022-09-12T10:12:01.981Z,1.00
2022-09-12T10:14:40.884Z,1.00
2022-09-12T10:17:31.754Z,1.00
2022-09-12T10:20:20.468Z,1.00
2022-09-12T10:22:51.229Z,1.00
2022-09-12T10:25:23.366Z,1.00
2022-09-12T10:27:59.177Z,1.00
2022-09-12T10:30:32.469Z,1.00
2022-09-12T10:33:10.894Z,1.00
2022-09-12T10:35:51.158Z,1.00
2022-09-12T10:38:26.263Z,1.00
2022-09-12T10:41:01.512Z,1.00
2022-09-12T10:43:37.817Z,1.00
2022-09-12T10:46:33.962Z,1.00
2022-09-12T10:49:28.674Z,1.00
2022-09-12T10:52:01.895Z,1.00
2022-09-12T10:54:31.749Z,1.00
2022-09-12T10:57:30.650Z,99.90
2022-09-12T11:00:27.894Z,1.00
2022-09-12T11:03:13.481Z,1.00
2022-09-12T11:05:55.379Z,1.00
2022-09-12T11:08:40.229Z,1.00
2022-09-12T11:11:21.401Z,1.00
2022-09-12T11:14:03.744Z,1.00
2022-09-12T11:16:43.254Z,1.00
2022-09-12T11:19:39.783Z,99.90
2022-09-12T11:22:32.021Z,99.90
2022-09-12T11:25:15.688Z,99.90
2022-09-12T11:28:02.986Z,99.90
2022-09-12T11:30:42.029Z,99.90
2022-09-12T11:33:25.700Z,99.90
2022-09-12T11:35:58.426Z,99.90
2022-09-12T11:38:43.183Z,99.90
2022-09-12T11:41:18.060Z,1.00
2022-09-12T11:43:53.112Z,99.90
2022-09-12T11:46:26.919Z,99.90
2022-09-12T11:49:01.059Z,99.90
2022-09-12T11:51:43.169Z,99.90
2022-09-12T11:54:24.050Z,99.90
2022-09-12T11:57:02.096Z,99.90
2022-09-12T11:59:43.772Z,99.90
2022-09-12T12:02:17.251Z,99.90
2022-09-12T12:04:58.871Z,1.00
2022-09-12T12:07:34.491Z,99.90
2022-09-12T12:10:05.109Z,99.90
2022-09-12T12:12:35.143Z,99.90
2022-09-12T12:15:05.611Z,99.90
2022-09-12T12:17:36.768Z,99.90
2022-09-12T12:20:18.112Z,99.90
2022-09-12T12:22:58.140Z,99.90
2022-09-12T12:25:42.072Z,99.90
2022-09-12T12:28:11.842Z,99.90
2022-09-12T12:31:06.144Z,99.90
2022-09-12T12:34:24.455Z,99.90
2022-09-12T12:36:54.297Z,99.90
2022-09-12T12:40:01.308Z,99.90
2022-09-12T12:43:09.615Z,99.90
2022-09-12T12:46:12.271Z,99.90
2022-09-12T12:49:20.102Z,99.90
2022-09-12T12:52:01.682Z,99.90
2022-09-12T12:54:36.065Z,99.90
2022-09-12T12:57:21.395Z,99.90
2022-09-12T12:59:55.818Z,99.90
2022-09-12T13:02:30.304Z,99.90
2022-09-12T13:05:06.345Z,99.90
2022-09-12T13:07:40.331Z,99.90
2022-09-12T13:10:11.887Z,99.90
2022-09-12T13:12:49.096Z,99.90
2022-09-12T13:15:53.809Z,99.90
2022-09-12T13:18:28.953Z,99.90
2022-09-12T13:21:11.026Z,99.90
2022-09-12T13:23:41.348Z,99.90
2022-09-12T13:26:15.529Z,99.90
2022-09-12T13:28:45.397Z,99.90
2022-09-12T13:31:24.256Z,99.90
2022-09-12T13:33:56.654Z,99.90
2022-09-12T13:36:50.770Z,99.90
2022-09-12T13:39:24.500Z,99.90
2022-09-12T13:42:25.829Z,99.90
2022-09-12T13:45:01.563Z,99.90
2022-09-12T13:47:35.527Z,99.90
2022-09-12T13:50:07.298Z,99.90
2022-09-12T13:52:41.511Z,99.90
2022-09-12T13:55:27.981Z,99.90
2022-09-12T13:58:03.523Z,99.90
2022-09-12T14:00:35.452Z,99.90
2022-09-12T14:03:40.426Z,99.90
2022-09-12T14:06:11.179Z,99.90
2022-09-12T14:08:45.007Z,99.90
2022-09-12T14:11:21.854Z,99.90
2022-09-12T14:13:52.736Z,99.90
2022-09-12T14:16:24.024Z,99.90
2022-09-12T14:18:54.632Z,99.90
2022-09-12T14:21:36.787Z,99.90
2022-09-12T14:24:11.597Z,99.90
2022-09-12T14:26:43.014Z,99.90
2022-09-12T14:29:18.331Z,99.90
2022-09-12T14:31:48.347Z,99.90
2022-09-12T14:34:20.355Z,99.90
2022-09-12T14:36:52.361Z,99.90
2022-09-12T14:39:32.083Z,99.90
2022-09-12T14:42:09.285Z,99.90
2022-09-12T14:44:39.933Z,99.90
2022-09-12T14:47:22.165Z,99.90
2022-09-12T14:49:53.861Z,99.90
2022-09-12T14:52:30.451Z,99.90
2022-09-12T14:55:04.846Z,99.90
2022-09-12T14:57:39.101Z,99.90
2022-09-12T15:00:22.468Z,99.90
2022-09-12T15:02:53.559Z,99.90
2022-09-12T15:05:28.891Z,99.90
2022-09-12T15:08:02.325Z,99.90
2022-09-12T15:10:38.368Z,99.90
2022-09-12T15:13:19.769Z,99.90
2022-09-12T15:15:53.179Z,99.90
2022-09-12T15:18:24.075Z,99.90
2022-09-12T15:20:57.765Z,99.90
2022-09-12T15:23:35.917Z,99.90
2022-09-12T15:26:09.746Z,99.90
2022-09-12T15:28:39.500Z,99.90
2022-09-12T15:31:15.053Z,99.90
2022-09-12T15:33:44.994Z,99.90
2022-09-12T15:36:19.701Z,99.90
2022-09-12T15:38:50.744Z,99.90
2022-09-12T15:41:25.397Z,99.90
2022-09-12T15:43:56.476Z,99.90
2022-09-12T15:46:27.392Z,99.90
2022-09-12T15:48:57.234Z,99.90
2022-09-12T15:51:28.402Z,99.90
2022-09-12T15:53:58.206Z,99.90
2022-09-12T15:56:31.580Z,99.90
2022-09-12T15:59:01.361Z,99.90
2022-09-12T16:01:32.667Z,99.90
2022-09-12T16:04:03.255Z,99.90
2022-09-12T16:06:37.146Z,99.90
2022-09-12T16:09:07.660Z,99.90
2022-09-12T16:11:42.717Z,99.90
2022-09-12T16:14:16.192Z,99.90
2022-09-12T16:16:47.906Z,99.90
2022-09-12T16:19:17.635Z,99.90
2022-09-12T16:21:48.035Z,99.90
2022-09-12T16:24:17.856Z,99.90
2022-09-12T16:26:50.948Z,99.90
2022-09-12T16:29:20.799Z,99.90
2022-09-12T16:31:51.063Z,99.90
2022-09-12T16:34:20.840Z,99.90
2022-09-12T16:36:51.737Z,99.90
2022-09-12T16:39:21.737Z,99.90
2022-09-12T16:41:54.808Z,99.90
2022-09-12T16:44:24.559Z,99.90
2022-09-12T16:46:55.363Z,99.90
2022-09-12T16:49:25.151Z,99.90
2022-09-12T16:51:54.903Z,99.90
2022-09-12T16:54:25.529Z,99.90
2022-09-12T16:56:57.832Z,99.90
2022-09-12T16:59:28.436Z,99.90
2022-09-12T17:01:58.220Z,99.90
2022-09-12T17:04:29.396Z,99.90
2022-09-12T17:06:59.735Z,99.90
2022-09-12T17:09:30.403Z,99.90
2022-09-12T17:12:02.726Z,99.90
2022-09-12T17:14:33.041Z,99.90
2022-09-12T17:17:02.764Z,99.90
2022-09-12T17:19:34.090Z,99.90
2022-09-12T17:22:03.784Z,99.90
2022-09-12T17:24:34.156Z,99.90
2022-09-12T17:27:06.722Z,99.90
2022-09-12T17:29:39.010Z,99.90
2022-09-12T17:32:14.384Z,99.90
2022-09-12T17:34:46.998Z,99.90
2022-09-12T17:37:17.775Z,99.90
2022-09-12T17:39:49.978Z,1.00
2022-09-12T17:42:24.398Z,1.00
2022-09-12T17:44:56.168Z,1.00
2022-09-12T17:47:28.819Z,1.00
2022-09-12T17:50:27.463Z,1.00
2022-09-12T17:52:50.248Z,1.00
2022-09-12T17:55:21.388Z,1.00
2022-09-12T17:57:54.211Z,1.00
2022-09-12T18:00:45.257Z,1.00
2022-09-12T18:03:12.742Z,1.00
2022-09-12T18:05:49.312Z,1.00
2022-09-12T18:08:19.218Z,1.00
2022-09-12T18:10:49.326Z,1.00
2022-09-12T18:13:22.267Z,1.00
2022-09-12T18:15:52.923Z,1.00
2022-09-12T18:18:22.737Z,1.00
2022-09-12T18:20:53.314Z,1.00
2022-09-12T18:23:23.318Z,1.00
2022-09-12T18:25:59.516Z,1.00
2022-09-12T18:28:31.887Z,1.00
2022-09-12T18:31:02.976Z,1.00
2022-09-12T18:33:33.105Z,1.00
2022-09-12T18:36:07.616Z,1.00
2022-09-12T18:38:38.019Z,1.00
2022-09-12T18:41:09.151Z,1.00
2022-09-12T18:43:41.948Z,1.00
2022-09-12T18:46:14.404Z,1.00
2022-09-12T18:48:44.937Z,1.00
2022-09-12T18:51:18.026Z,1.00
2022-09-12T18:53:53.000Z,1.00
2022-09-12T18:56:23.944Z,1.00
2022-09-12T18:58:58.046Z,1.00
2022-09-12T19:01:29.703Z,1.00
2022-09-12T19:04:00.957Z,1.00
2022-09-12T19:06:32.975Z,1.00
2022-09-12T19:09:07.564Z,1.00
2022-09-12T19:11:40.036Z,1.00
2022-09-12T19:14:12.438Z,1.00
2022-09-12T19:16:42.722Z,1.00
2022-09-12T19:19:12.592Z,1.00
2022-09-12T19:21:42.973Z,1.00
2022-09-12T19:24:14.515Z,1.00
2022-09-12T19:26:45.356Z,1.00
2022-09-12T19:29:18.224Z,1.00
2022-09-12T19:31:49.166Z,1.00
2022-09-12T19:34:19.000Z,1.00
2022-09-12T19:36:48.840Z,1.00
2022-09-12T19:39:19.916Z,1.00
2022-09-12T19:41:50.085Z,1.00
2022-09-12T19:44:23.754Z,1.00
2022-09-12T19:46:53.862Z,1.00
2022-09-12T19:49:30.162Z,1.00
2022-09-12T19:52:00.579Z,1.00
2022-09-12T19:54:30.415Z,1.00
2022-09-12T19:57:00.962Z,1.00
2022-09-12T19:59:33.380Z,1.00
2022-09-12T20:02:04.238Z,1.00
2022-09-12T20:04:34.952Z,1.00
2022-09-12T20:07:05.355Z,1.00
2022-09-12T20:09:36.075Z,1.00
2022-09-12T20:12:06.698Z,1.00
2022-09-12T20:14:39.063Z,1.00
2022-09-12T20:17:09.237Z,1.00
2022-09-12T20:19:39.053Z,1.00
2022-09-12T20:22:08.933Z,1.00
2022-09-12T20:24:38.713Z,1.00
2022-09-12T20:27:09.189Z,1.00
2022-09-12T20:29:41.510Z,1.00
2022-09-12T20:32:11.302Z,1.00
2022-09-12T20:34:43.912Z,1.00
2022-09-12T20:37:14.285Z,1.00
2022-09-12T20:39:46.830Z,1.00
2022-09-12T20:42:20.417Z,1.00
2022-09-12T20:44:52.844Z,1.00
2022-09-12T20:47:23.456Z,1.00
2022-09-12T20:49:53.787Z,1.00
2022-09-12T20:52:24.119Z,1.00
2022-09-12T20:54:54.079Z,1.00
2022-09-12T20:57:24.566Z,1.00
2022-09-12T20:59:56.960Z,1.00
2022-09-12T21:02:30.153Z,1.00
2022-09-12T21:05:00.096Z,1.00
2022-09-12T21:07:30.086Z,1.00
2022-09-12T21:10:00.277Z,1.00
2022-09-12T21:12:31.228Z,1.00
2022-09-12T21:15:06.202Z,1.00
2022-09-12T21:17:36.789Z,1.00
2022-09-12T21:20:11.258Z,1.00
2022-09-12T21:22:41.868Z,1.00
2022-09-12T21:25:12.788Z,1.00
2022-09-12T21:27:43.358Z,1.00
2022-09-12T21:30:16.904Z,1.00
2022-09-12T21:32:47.545Z,1.00
2022-09-12T21:35:17.492Z,1.00
2022-09-12T21:37:48.074Z,1.00
2022-09-12T21:40:18.084Z,1.00
2022-09-12T21:42:48.188Z,1.00
2022-09-12T21:45:21.130Z,1.00
2022-09-12T21:47:52.247Z,1.00
2022-09-12T21:50:22.180Z,1.00
2022-09-12T21:52:52.743Z,1.00
2022-09-12T21:55:26.598Z,1.00
2022-09-12T21:57:56.553Z,1.00
2022-09-12T22:00:29.197Z,1.00
2022-09-12T22:02:59.114Z,1.00
2022-09-12T22:05:33.080Z,1.00
2022-09-12T22:08:03.474Z,1.00
2022-09-12T22:10:33.638Z,1.00
2022-09-12T22:13:03.712Z,1.00
2022-09-12T22:15:40.534Z,1.00
2022-09-12T22:18:11.501Z,1.00
2022-09-12T22:20:42.022Z,1.00
2022-09-12T22:23:26.675Z,1.00
2022-09-12T22:25:59.177Z,1.00
2022-09-12T22:28:31.887Z,1.00
2022-09-12T22:31:05.599Z,1.00
2022-09-12T22:33:35.507Z,1.00
2022-09-12T22:36:06.543Z,1.00
2022-09-12T22:38:36.781Z,1.00
2022-09-12T22:41:08.665Z,1.00
2022-09-12T22:43:39.957Z,1.00
2022-09-12T22:46:15.254Z,1.00
2022-09-12T22:48:45.792Z,1.00
2022-09-12T22:51:16.640Z,1.00
2022-09-12T22:53:47.172Z,1.00
2022-09-12T22:56:17.696Z,1.00
2022-09-12T22:58:47.496Z,1.00
2022-09-12T23:01:21.014Z,1.00
2022-09-12T23:03:50.914Z,1.00
2022-09-12T23:06:22.060Z,1.00
2022-09-12T23:08:51.926Z,1.00
2022-09-12T23:11:24.444Z,1.00
2022-09-12T23:13:54.312Z,1.00
2022-09-12T23:16:31.595Z,1.00
2022-09-12T23:19:01.627Z,1.00
2022-09-12T23:21:31.826Z,1.00
2022-09-12T23:24:01.664Z,1.00
2022-09-12T23:26:32.850Z,1.00
2022-09-12T23:29:04.509Z,1.00
2022-09-12T23:31:37.742Z,1.00
2022-09-12T23:34:09.311Z,1.00
2022-09-12T23:36:40.400Z,1.00
2022-09-12T23:39:10.203Z,1.00
2022-09-12T23:41:40.575Z,1.00
2022-09-12T23:44:10.694Z,1.00
2022-09-12T23:46:43.859Z,1.00
2022-09-12T23:49:13.662Z,1.00
2022-09-12T23:51:44.594Z,1.00
2022-09-12T23:54:14.777Z,1.00
2022-09-12T23:56:45.346Z,1.00
2022-09-12T23:59:15.188Z,1.00
